Time;durP1;ratioP1;P1;durP2;ratioP2;P2;SDS_P1;SDS_P2;PMS_P1;PMS_P2;Temp;Humidity;BMP_temperature;BMP_pressure;BME280_temperature;BME280_humidity;BME280_pressure;Samples;Min_cycle;Max_cycle;Signal;HPM_P1;HPM_P2
2021/12/04 00:00:49;;;;;;;;;;;23.60;43.90;;;;;;1598220;73;856;-66
2021/12/04 00:02:53;;;;;;;;;;;23.70;44.00;;;;;;1596020;73;1612;-67
2021/12/04 00:04:57;;;;;;;;;;;23.70;44.00;;;;;;1598291;73;1123;-68
2021/12/04 00:06:58;;;;;;;;;;;23.60;43.90;;;;;;1596534;73;727;-67
2021/12/04 00:09:04;;;;;;;;;;;23.60;44.00;;;;;;1596361;73;735;-67
2021/12/04 00:11:04;;;;;;;;;;;23.60;44.00;;;;;;1593719;73;1929;-68
2021/12/04 00:13:06;;;;;;;;;;;23.70;44.20;;;;;;1598300;73;660;-67
2021/12/04 00:15:08;;;;;;;;;;;23.70;44.20;;;;;;1596451;73;1170;-68
2021/12/04 00:17:10;;;;;;;;;;;23.60;44.10;;;;;;1596331;73;801;-68
2021/12/04 00:19:12;;;;;;;;;;;23.70;44.20;;;;;;1596446;73;692;-68
2021/12/04 00:21:13;;;;;;;;;;;23.70;44.20;;;;;;1598312;73;749;-70
2021/12/04 00:23:15;;;;;;;;;;;23.70;44.30;;;;;;1596911;73;668;-67
2021/12/04 00:25:17;;;;;;;;;;;23.70;44.30;;;;;;1598688;73;1115;-67
2021/12/04 00:27:19;;;;;;;;;;;23.70;44.30;;;;;;1596303;73;668;-68
2021/12/04 00:29:22;;;;;;;;;;;23.70;44.20;;;;;;1596681;73;679;-69
2021/12/04 00:31:24;;;;;;;;;;;23.70;44.30;;;;;;1600346;73;1905;-69
2021/12/04 00:33:31;;;;;;;;;;;23.70;44.30;;;;;;1595271;73;708;-69
2021/12/04 00:49:17;;;;;;;;;;;23.60;44.40;;;;;;1599367;74;1639;-67
2021/12/04 00:51:17;;;;;;;;;;;23.60;44.40;;;;;;1597892;74;1915;-68
2021/12/04 00:53:19;;;;;;;;;;;23.60;44.40;;;;;;1596657;73;734;-67
2021/12/04 00:55:21;;;;;;;;;;;23.60;44.40;;;;;;1596349;73;1099;-68
2021/12/04 00:57:23;;;;;;;;;;;23.70;44.50;;;;;;1596743;74;714;-68
2021/12/04 00:59:26;;;;;;;;;;;23.70;44.50;;;;;;1592049;74;717;-69
2021/12/04 01:01:28;;;;;;;;;;;23.70;44.40;;;;;;1563670;76;738;-67
2021/12/04 01:03:30;;;;;;;;;;;23.80;44.40;;;;;;1587337;73;706;-67
2021/12/04 01:05:32;;;;;;;;;;;23.70;44.50;;;;;;1596522;74;787;-67
2021/12/04 01:07:34;;;;;;;;;;;23.70;44.50;;;;;;1596627;73;646;-67
2021/12/04 01:09:36;;;;;;;;;;;23.70;44.60;;;;;;1596546;74;719;-67
2021/12/04 01:11:38;;;;;;;;;;;23.70;44.50;;;;;;1596365;74;1942;-67
2021/12/04 01:13:40;;;;;;;;;;;23.70;44.60;;;;;;1596341;73;1167;-67
2021/12/04 01:15:43;;;;;;;;;;;23.70;44.50;;;;;;1596443;74;759;-67
2021/12/04 01:17:44;;;;;;;;;;;23.70;44.50;;;;;;1596526;74;581;-67
2021/12/04 01:19:46;;;;;;;;;;;23.70;44.50;;;;;;1596664;74;762;-66
2021/12/04 01:21:49;;;;;;;;;;;23.70;44.50;;;;;;1596316;74;725;-67
2021/12/04 01:23:50;;;;;;;;;;;23.70;44.50;;;;;;1596496;73;1158;-66
2021/12/04 01:25:52;;;;;;;;;;;23.70;44.50;;;;;;1596478;74;1077;-66
2021/12/04 01:27:54;;;;;;;;;;;23.70;44.50;;;;;;1596539;74;705;-67
2021/12/04 01:29:56;;;;;;;;;;;23.80;44.50;;;;;;1596649;74;737;-68
2021/12/04 01:31:58;;;;;;;;;;;23.70;44.60;;;;;;1596459;74;1929;-70
2021/12/04 01:34:00;;;;;;;;;;;23.80;44.60;;;;;;1596391;73;1119;-66
2021/12/04 01:36:02;;;;;;;;;;;23.70;44.60;;;;;;1569509;73;757;-66
2021/12/04 01:38:04;;;;;;;;;;;23.70;44.70;;;;;;1563607;76;573;-66
2021/12/04 01:40:06;;;;;;;;;;;23.70;44.60;;;;;;1563723;75;780;-66
2021/12/04 01:42:08;;;;;;;;;;;23.60;44.50;;;;;;1563578;75;746;-66
2021/12/04 01:44:10;;;;;;;;;;;23.70;44.70;;;;;;1590457;73;1138;-67
2021/12/04 01:46:12;;;;;;;;;;;23.70;44.50;;;;;;1609941;73;609;-66
2021/12/04 01:48:14;;;;;;;;;;;23.80;44.60;;;;;;1599675;73;627;-67
2021/12/04 01:50:16;;;;;;;;;;;23.70;44.60;;;;;;1599480;73;741;-66
2021/12/04 01:52:18;;;;;;;;;;;23.70;44.70;;;;;;1599445;74;1922;-66
2021/12/04 01:54:20;;;;;;;;;;;23.80;44.60;;;;;;1599810;73;1143;-66
2021/12/04 01:56:22;;;;;;;;;;;23.80;44.50;;;;;;1605565;73;732;-66
2021/12/04 01:58:24;;;;;;;;;;;23.70;44.50;;;;;;1624875;73;727;-68
2021/12/04 02:00:26;;;;;;;;;;;23.70;44.60;;;;;;1626599;73;720;-68
2021/12/04 02:02:28;;;;;;;;;;;23.70;44.60;;;;;;1622692;73;706;-65
2021/12/04 02:04:30;;;;;;;;;;;23.80;44.50;;;;;;1596453;73;1130;-66
2021/12/04 02:06:32;;;;;;;;;;;23.70;44.60;;;;;;1596626;74;791;-67
2021/12/04 02:08:33;;;;;;;;;;;23.80;44.50;;;;;;1596519;74;759;-66
2021/12/04 02:10:35;;;;;;;;;;;23.80;44.60;;;;;;1596530;74;696;-64
2021/12/04 02:12:37;;;;;;;;;;;23.80;44.60;;;;;;1601288;73;1929;-67
2021/12/04 02:14:40;;;;;;;;;;;23.70;44.50;;;;;;1609364;72;1209;-67
2021/12/04 02:16:42;;;;;;;;;;;23.80;44.60;;;;;;1609412;73;716;-66
2021/12/04 02:18:43;;;;;;;;;;;23.70;44.60;;;;;;1609534;73;655;-67
2021/12/04 02:20:45;;;;;;;;;;;23.70;44.60;;;;;;1601573;74;778;-66
2021/12/04 02:22:47;;;;;;;;;;;23.70;44.60;;;;;;1596216;74;658;-66
2021/12/04 02:24:49;;;;;;;;;;;23.80;44.60;;;;;;1596119;73;1087;-65
2021/12/04 02:26:51;;;;;;;;;;;23.80;44.70;;;;;;1596491;74;783;-67
2021/12/04 02:28:55;;;;;;;;;;;23.80;44.70;;;;;;1596562;74;772;-65
2021/12/04 02:30:57;;;;;;;;;;;23.70;44.70;;;;;;1596627;74;756;-67
2021/12/04 02:32:59;;;;;;;;;;;23.80;44.80;;;;;;1596285;74;1937;-66
2021/12/04 02:35:00;;;;;;;;;;;23.70;44.80;;;;;;1606275;73;1166;-69
2021/12/04 02:37:02;;;;;;;;;;;23.70;44.80;;;;;;1627867;73;766;-69
2021/12/04 02:39:06;;;;;;;;;;;23.70;44.90;;;;;;1627933;73;781;-67
2021/12/04 02:41:09;;;;;;;;;;;23.70;45.00;;;;;;1614074;73;1163;-67
2021/12/04 02:43:11;;;;;;;;;;;23.70;45.00;;;;;;1585096;73;722;-69
2021/12/04 02:45:13;;;;;;;;;;;23.70;44.90;;;;;;1563656;73;1113;-67
2021/12/04 02:47:15;;;;;;;;;;;23.70;44.90;;;;;;1563698;73;801;-69
2021/12/04 02:49:17;;;;;;;;;;;23.70;45.00;;;;;;1565471;74;764;-69
2021/12/04 02:51:19;;;;;;;;;;;23.70;45.00;;;;;;1578192;74;1080;-67
2021/12/04 02:53:21;;;;;;;;;;;23.70;45.00;;;;;;1563553;75;1921;-67
2021/12/04 02:55:23;;;;;;;;;;;23.80;45.00;;;;;;1590929;74;1125;-68
2021/12/04 02:57:26;;;;;;;;;;;23.70;45.00;;;;;;1609488;74;717;-68
2021/12/04 02:59:28;;;;;;;;;;;23.70;45.00;;;;;;1604144;74;676;-70
2021/12/04 03:01:30;;;;;;;;;;;23.60;44.80;;;;;;1595016;74;791;-67
2021/12/04 03:03:32;;;;;;;;;;;23.70;45.00;;;;;;1588303;73;1170;-66
2021/12/04 03:05:34;;;;;;;;;;;23.60;44.80;;;;;;1598039;74;602;-67
2021/12/04 03:07:36;;;;;;;;;;;23.70;45.00;;;;;;1596367;74;738;-67
2021/12/04 03:09:38;;;;;;;;;;;23.60;44.90;;;;;;1595067;74;638;-68
2021/12/04 03:11:40;;;;;;;;;;;23.70;45.00;;;;;;1595314;74;1915;-69
2021/12/04 03:13:43;;;;;;;;;;;23.60;44.90;;;;;;1585045;73;1143;-70
2021/12/04 03:15:46;;;;;;;;;;;23.70;45.00;;;;;;1625361;73;651;-67
2021/12/04 03:17:48;;;;;;;;;;;23.60;45.00;;;;;;1600091;73;709;-68
2021/12/04 03:19:51;;;;;;;;;;;23.60;45.00;;;;;;1596775;73;785;-68
2021/12/04 03:21:53;;;;;;;;;;;23.70;45.20;;;;;;1620177;73;799;-68
2021/12/04 03:23:58;;;;;;;;;;;23.60;45.00;;;;;;1596553;73;1135;-71
2021/12/04 03:26:00;;;;;;;;;;;23.70;45.10;;;;;;1596051;74;1116;-68
2021/12/04 03:28:05;;;;;;;;;;;23.70;45.20;;;;;;1594435;74;751;-68
2021/12/04 03:30:14;;;;;;;;;;;23.60;45.00;;;;;;1582274;73;1625;-68
2021/12/04 03:41:12;;;;;;;;;;;23.70;45.00;;;;;;1596601;74;723;-70
2021/12/04 03:43:14;;;;;;;;;;;23.70;45.00;;;;;;1596487;74;718;-72
2021/12/04 03:45:16;;;;;;;;;;;23.70;45.00;;;;;;1596366;73;1082;-70
2021/12/04 03:47:19;;;;;;;;;;;23.80;45.00;;;;;;1575158;73;739;-70
2021/12/04 03:49:21;;;;;;;;;;;23.90;44.90;;;;;;1591657;74;717;-71
2021/12/04 03:51:23;;;;;;;;;;;23.90;44.80;;;;;;1596498;73;791;-71
2021/12/04 03:53:25;;;;;;;;;;;23.90;44.70;;;;;;1598119;73;1898;-68
2021/12/04 03:55:27;;;;;;;;;;;23.90;44.60;;;;;;1601099;72;1141;-69
2021/12/04 03:57:29;;;;;;;;;;;23.90;44.60;;;;;;1596676;74;697;-68
2021/12/04 03:59:32;;;;;;;;;;;23.90;44.50;;;;;;1596542;73;728;-68
2021/12/04 04:01:34;;;;;;;;;;;24.00;44.50;;;;;;1596035;74;994;-69
2021/12/04 04:03:36;;;;;;;;;;;24.00;44.40;;;;;;1592831;72;1153;-69
2021/12/04 04:05:38;;;;;;;;;;;23.90;44.40;;;;;;1591669;72;3126;-68
2021/12/04 04:07:40;;;;;;;;;;;23.90;44.50;;;;;;1575421;74;815;-67
2021/12/04 04:09:42;;;;;;;;;;;23.90;44.70;;;;;;1575455;74;778;-67
2021/12/04 04:11:44;;;;;;;;;;;23.80;44.60;;;;;;1579696;74;802;-67
2021/12/04 04:13:46;;;;;;;;;;;23.80;44.60;;;;;;1616034;73;1906;-67
2021/12/04 04:15:48;;;;;;;;;;;23.80;44.80;;;;;;1627208;72;1180;-67
2021/12/04 04:17:50;;;;;;;;;;;23.70;44.80;;;;;;1627297;73;624;-67
2021/12/04 04:19:52;;;;;;;;;;;23.70;45.00;;;;;;1627285;73;747;-67
2021/12/04 04:21:59;;;;;;;;;;;23.60;44.90;;;;;;1607309;73;643;-66
2021/12/04 04:23:57;;;;;;;;;;;23.50;45.20;;;;;;1601898;74;1521;-67
2021/12/04 04:25:59;;;;;;;;;;;23.50;45.20;;;;;;1602615;73;1154;-68
2021/12/04 04:28:01;;;;;;;;;;;23.50;45.40;;;;;;1603128;74;818;-67
2021/12/04 04:30:04;;;;;;;;;;;23.40;45.40;;;;;;1603025;74;790;-67
2021/12/04 04:32:06;;;;;;;;;;;23.30;45.50;;;;;;1602808;74;1942;-67
2021/12/04 04:34:09;;;;;;;;;;;23.30;45.60;;;;;;1602348;73;1076;-66
2021/12/04 04:36:23;;;;;;;;;;;23.20;45.60;;;;;;1602948;74;803;-66
2021/12/04 05:00:58;;;;;;;;;;;23.20;46.30;;;;;;1575586;75;861;-66
2021/12/04 05:12:18;;;;;;;;;;;23.20;46.30;;;;;;1602744;74;1627;-66
2021/12/04 05:14:19;;;;;;;;;;;23.20;46.30;;;;;;1600992;73;1910;-65
2021/12/04 05:16:20;;;;;;;;;;;23.20;46.30;;;;;;1602154;74;1477;-65
2021/12/04 05:20:32;;;;;;;;;;;23.30;46.40;;;;;;1602239;74;803;-67
2021/12/04 05:22:28;;;;;;;;;;;23.30;46.30;;;;;;1601287;74;1575;-65
2021/12/04 05:24:30;;;;;;;;;;;23.30;46.20;;;;;;1602543;73;1123;-66
2021/12/04 05:26:32;;;;;;;;;;;23.40;46.00;;;;;;1603017;74;785;-67
2021/12/04 05:28:34;;;;;;;;;;;23.60;45.90;;;;;;1602908;74;716;-67
2021/12/04 05:30:36;;;;;;;;;;;23.60;45.60;;;;;;1602967;74;656;-65
2021/12/04 05:32:38;;;;;;;;;;;23.70;45.60;;;;;;1602636;74;1957;-66
2021/12/04 05:34:39;;;;;;;;;;;23.70;45.50;;;;;;1603083;73;1117;-64
2021/12/04 05:36:41;;;;;;;;;;;23.70;45.70;;;;;;1602803;74;798;-61
2021/12/04 05:38:43;;;;;;;;;;;23.70;45.70;;;;;;1602918;74;720;-64
2021/12/04 05:40:45;;;;;;;;;;;23.70;45.70;;;;;;1602954;74;760;-64
2021/12/04 05:42:47;;;;;;;;;;;23.80;45.50;;;;;;1602542;74;746;-64
2021/12/04 05:44:49;;;;;;;;;;;23.90;45.30;;;;;;1602868;73;1123;-64
2021/12/04 05:46:59;;;;;;;;;;;23.90;45.10;;;;;;1602948;74;774;-64
2021/12/04 05:49:10;;;;;;;;;;;23.90;44.90;;;;;;1601917;74;1747;-64
2021/12/04 05:55:21;;;;;;;;;;;23.90;44.90;;;;;;1602370;73;1104;-64
2021/12/04 05:57:23;;;;;;;;;;;23.90;44.80;;;;;;1603025;74;780;-65
2021/12/04 05:59:25;;;;;;;;;;;23.90;44.90;;;;;;1603034;74;731;-65
2021/12/04 06:01:28;;;;;;;;;;;23.90;44.90;;;;;;1603053;74;715;-64
2021/12/04 06:03:30;;;;;;;;;;;24.00;44.70;;;;;;1602227;74;685;-63
2021/12/04 06:05:32;;;;;;;;;;;24.00;44.70;;;;;;1603121;73;1170;-64
2021/12/04 06:07:33;;;;;;;;;;;24.00;44.70;;;;;;1603231;74;692;-64
2021/12/04 06:09:35;;;;;;;;;;;24.10;44.60;;;;;;1602912;74;791;-63
2021/12/04 06:11:37;;;;;;;;;;;24.10;44.50;;;;;;1598370;74;775;-63
2021/12/04 06:13:39;;;;;;;;;;;24.20;44.40;;;;;;1575487;75;1934;-64
2021/12/04 06:15:41;;;;;;;;;;;24.20;44.40;;;;;;1575447;74;1102;-64
2021/12/04 06:17:43;;;;;;;;;;;24.20;44.30;;;;;;1575665;75;586;-60
2021/12/04 06:24:25;;;;;;;;;;;24.20;44.30;;;;;;1602556;73;1617;-63
2021/12/04 06:26:27;;;;;;;;;;;24.20;44.40;;;;;;1603051;74;786;-63
2021/12/04 06:28:28;;;;;;;;;;;24.00;44.60;;;;;;1602680;73;778;-63
2021/12/04 06:30:36;;;;;;;;;;;24.00;44.70;;;;;;1593436;74;755;-62
2021/12/04 06:32:38;;;;;;;;;;;23.90;44.80;;;;;;1601754;73;1431;-63
2021/12/04 06:34:37;;;;;;;;;;;23.90;44.80;;;;;;1601370;73;1903;-65
2021/12/04 06:36:39;;;;;;;;;;;23.90;44.90;;;;;;1602654;74;751;-62
2021/12/04 06:38:41;;;;;;;;;;;24.00;44.80;;;;;;1598633;73;723;-63
2021/12/04 06:40:43;;;;;;;;;;;24.00;44.70;;;;;;1598642;74;871;-63
2021/12/04 06:42:45;;;;;;;;;;;24.00;44.70;;;;;;1599926;74;695;-64
2021/12/04 06:44:48;;;;;;;;;;;24.10;44.70;;;;;;1602639;73;1122;-63
2021/12/04 06:46:50;;;;;;;;;;;24.20;44.60;;;;;;1602585;73;827;-66
2021/12/04 06:49:10;;;;;;;;;;;24.10;44.60;;;;;;1598590;74;709;-65
2021/12/04 06:51:21;;;;;;;;;;;24.20;44.50;;;;;;1601420;73;1693;-64
2021/12/04 06:53:26;;;;;;;;;;;24.20;44.50;;;;;;1597824;74;1934;-64
2021/12/04 06:55:28;;;;;;;;;;;24.10;44.70;;;;;;1600310;73;1771;-63
2021/12/04 06:57:29;;;;;;;;;;;24.10;44.70;;;;;;1595997;74;1592;-63
2021/12/04 06:59:33;;;;;;;;;;;24.10;44.70;;;;;;1600688;73;1492;-63
2021/12/04 07:01:34;;;;;;;;;;;24.10;44.90;;;;;;1602689;74;1779;-63
2021/12/04 07:03:36;;;;;;;;;;;24.10;44.90;;;;;;1597693;74;694;-64
2021/12/04 07:05:38;;;;;;;;;;;24.00;44.80;;;;;;1596717;73;1191;-64
2021/12/04 07:07:40;;;;;;;;;;;24.00;44.90;;;;;;1603107;74;762;-63
2021/12/04 07:09:42;;;;;;;;;;;24.10;44.90;;;;;;1602964;74;803;-64
2021/12/04 07:11:44;;;;;;;;;;;24.10;45.00;;;;;;1602098;73;828;-63
2021/12/04 07:13:46;;;;;;;;;;;24.00;45.00;;;;;;1597602;74;1934;-63
2021/12/04 07:15:48;;;;;;;;;;;24.00;45.10;;;;;;1599171;73;1124;-63
2021/12/04 07:17:50;;;;;;;;;;;24.00;44.90;;;;;;1598472;74;787;-61
2021/12/04 07:19:51;;;;;;;;;;;24.20;44.80;;;;;;1597900;74;692;-63
2021/12/04 07:21:53;;;;;;;;;;;24.20;44.70;;;;;;1601650;74;733;-63
2021/12/04 07:23:55;;;;;;;;;;;24.20;44.60;;;;;;1593628;74;684;-62
2021/12/04 07:25:57;;;;;;;;;;;24.20;44.50;;;;;;1592750;74;1067;-64
2021/12/04 07:27:59;;;;;;;;;;;24.20;44.30;;;;;;1595921;74;688;-63
2021/12/04 07:30:01;;;;;;;;;;;24.20;44.40;;;;;;1597972;74;707;-64
2021/12/04 07:32:03;;;;;;;;;;;24.20;44.50;;;;;;1602096;74;793;-63
2021/12/04 07:34:05;;;;;;;;;;;24.20;44.50;;;;;;1594538;74;1935;-65
2021/12/04 07:36:07;;;;;;;;;;;24.20;44.50;;;;;;1602154;74;780;-66
2021/12/04 07:38:10;;;;;;;;;;;24.20;44.40;;;;;;1599379;74;876;-65
2021/12/04 07:40:12;;;;;;;;;;;24.20;44.40;;;;;;1593062;74;767;-64
2021/12/04 07:42:14;;;;;;;;;;;24.20;44.30;;;;;;1590990;74;679;-64
2021/12/04 07:44:16;;;;;;;;;;;24.20;44.30;;;;;;1587776;73;1122;-64
2021/12/04 07:46:18;;;;;;;;;;;24.20;44.30;;;;;;1601284;74;792;-65
2021/12/04 07:48:20;;;;;;;;;;;24.20;44.30;;;;;;1598149;74;732;-64
2021/12/04 07:50:21;;;;;;;;;;;24.20;44.20;;;;;;1596950;74;777;-63
2021/12/04 07:52:23;;;;;;;;;;;24.20;44.20;;;;;;1596033;74;775;-64
2021/12/04 07:54:25;;;;;;;;;;;24.20;44.20;;;;;;1596246;73;1939;-64
2021/12/04 07:56:27;;;;;;;;;;;24.20;44.20;;;;;;1589372;74;815;-61
2021/12/04 07:58:29;;;;;;;;;;;24.20;44.20;;;;;;1596757;74;889;-64
2021/12/04 08:00:31;;;;;;;;;;;24.20;44.20;;;;;;1589049;74;773;-65
2021/12/04 08:02:33;;;;;;;;;;;24.20;44.10;;;;;;1595070;74;809;-64
2021/12/04 08:04:34;;;;;;;;;;;24.20;44.10;;;;;;1595424;73;1121;-64
2021/12/04 08:06:36;;;;;;;;;;;24.20;44.10;;;;;;1597999;74;781;-64
2021/12/04 08:08:38;;;;;;;;;;;24.20;44.10;;;;;;1594729;74;720;-64
2021/12/04 08:10:40;;;;;;;;;;;24.20;44.20;;;;;;1583137;74;716;-64
2021/12/04 08:12:42;;;;;;;;;;;24.20;44.20;;;;;;1591426;74;726;-64
2021/12/04 08:14:44;;;;;;;;;;;24.20;44.10;;;;;;1581053;74;1919;-64
2021/12/04 08:16:50;;;;;;;;;;;24.10;44.20;;;;;;1591513;74;729;-64
2021/12/04 08:18:50;;;;;;;;;;;24.10;44.30;;;;;;1586348;74;1559;-62
2021/12/04 08:20:52;;;;;;;;;;;24.10;44.50;;;;;;1582938;74;708;-64
2021/12/04 08:22:53;;;;;;;;;;;23.90;44.60;;;;;;1583040;74;732;-64
2021/12/04 08:24:55;;;;;;;;;;;24.00;44.60;;;;;;1582433;74;1142;-64
2021/12/04 08:26:57;;;;;;;;;;;24.10;44.50;;;;;;1581886;74;724;-65
2021/12/04 08:28:59;;;;;;;;;;;24.10;44.40;;;;;;1586291;74;794;-65
2021/12/04 08:31:01;;;;;;;;;;;24.20;44.30;;;;;;1579481;74;715;-66
2021/12/04 08:33:03;;;;;;;;;;;24.20;44.20;;;;;;1597138;73;758;-65
2021/12/04 08:35:05;;;;;;;;;;;24.20;44.20;;;;;;1587568;74;1930;-65
2021/12/04 08:37:07;;;;;;;;;;;24.20;44.20;;;;;;1603510;74;708;-64
2021/12/04 08:39:09;;;;;;;;;;;24.10;44.20;;;;;;1608459;74;798;-64
2021/12/04 08:41:11;;;;;;;;;;;24.00;44.20;;;;;;1608691;74;758;-66
2021/12/04 08:43:13;;;;;;;;;;;24.10;44.30;;;;;;1602724;74;732;-64
2021/12/04 08:45:15;;;;;;;;;;;24.00;44.30;;;;;;1603006;73;1137;-65
2021/12/04 08:47:17;;;;;;;;;;;24.00;44.30;;;;;;1602953;74;771;-65
2021/12/04 08:49:19;;;;;;;;;;;24.00;44.30;;;;;;1603012;74;803;-65
2021/12/04 08:51:22;;;;;;;;;;;23.90;44.40;;;;;;1602328;74;708;-64
2021/12/04 08:53:24;;;;;;;;;;;23.90;44.40;;;;;;1602896;74;773;-65
2021/12/04 08:55:25;;;;;;;;;;;23.90;44.40;;;;;;1602219;73;1933;-65
2021/12/04 08:57:27;;;;;;;;;;;23.90;44.40;;;;;;1602908;74;649;-64
2021/12/04 08:59:29;;;;;;;;;;;23.90;44.40;;;;;;1602968;74;713;-62
2021/12/04 09:01:32;;;;;;;;;;;23.90;44.40;;;;;;1602958;74;704;-64
2021/12/04 09:03:35;;;;;;;;;;;23.90;44.40;;;;;;1602711;73;753;-63
2021/12/04 09:05:37;;;;;;;;;;;23.90;44.40;;;;;;1597935;73;1174;-64
2021/12/04 09:07:39;;;;;;;;;;;23.90;44.50;;;;;;1582385;74;805;-65
2021/12/04 09:09:41;;;;;;;;;;;23.90;44.50;;;;;;1576770;73;781;-64
2021/12/04 09:11:44;;;;;;;;;;;23.90;44.50;;;;;;1585675;73;908;-67
2021/12/04 09:13:47;;;;;;;;;;;23.90;44.50;;;;;;1591553;73;1936;-65
2021/12/04 09:15:49;;;;;;;;;;;23.80;44.50;;;;;;1582113;73;1127;-65
2021/12/04 09:17:51;;;;;;;;;;;23.80;44.50;;;;;;1584268;73;713;-66
2021/12/04 09:19:53;;;;;;;;;;;23.80;44.50;;;;;;1577908;73;898;-65
2021/12/04 09:21:55;;;;;;;;;;;23.90;44.50;;;;;;1578752;73;766;-65
2021/12/04 09:24:10;;;;;;;;;;;23.80;44.50;;;;;;1589221;73;723;-65
2021/12/04 09:26:10;;;;;;;;;;;23.90;44.50;;;;;;1578291;73;1621;-66
2021/12/04 09:28:22;;;;;;;;;;;23.90;44.40;;;;;;1579472;73;1922;-65
2021/12/04 09:30:42;;;;;;;;;;;23.90;44.40;;;;;;1577090;74;1673;-65
2021/12/04 09:40:18;;;;;;;;;;;23.90;44.30;;;;;;1589860;73;877;-65
2021/12/04 10:00:14;;;;;;;;;;;23.90;44.40;;;;;;1590794;74;1616;-66
2021/12/04 10:11:50;;;;;;;;;;;24.00;44.10;;;;;;1523436;76;1652;-60
2021/12/04 10:22:09;;;;;;;;;;;24.00;44.10;;;;;;1524985;76;886;-58
2021/12/04 10:33:33;;;;;;;;;;;23.90;44.50;;;;;;1520019;76;1629;-59
2021/12/04 10:35:35;;;;;;;;;;;23.90;44.90;;;;;;1514966;76;1941;-58
2021/12/04 10:37:51;;;;;;;;;;;23.80;44.70;;;;;;1531744;76;1154;-59
2021/12/04 10:39:53;;;;;;;;;;;23.90;44.70;;;;;;1517742;76;1065;-58
2021/12/04 10:41:56;;;;;;;;;;;23.90;44.70;;;;;;1528308;76;731;-58
2021/12/04 10:43:59;;;;;;;;;;;24.00;44.70;;;;;;1534344;76;684;-59
2021/12/04 10:46:02;;;;;;;;;;;24.00;44.70;;;;;;1533376;76;1591;-58
2021/12/04 10:48:07;;;;;;;;;;;23.90;44.70;;;;;;1532852;76;602;-58
2021/12/04 10:50:22;;;;;;;;;;;24.00;44.70;;;;;;1538539;76;626;-59
2021/12/04 10:52:27;;;;;;;;;;;23.90;44.60;;;;;;1544606;76;1505;-58
2021/12/04 10:54:32;;;;;;;;;;;24.00;44.70;;;;;;1538891;76;1936;-57
2021/12/04 10:57:00;;;;;;;;;;;23.90;44.70;;;;;;1515290;77;1501;-59
2021/12/04 11:00:55;;;;;;;;;;;24.00;44.80;;;;;;1546666;76;858;-60
2021/12/04 11:03:02;;;;;;;;;;;23.90;44.90;;;;;;1553947;76;1770;-60
2021/12/04 11:05:12;;;;;;;;;;;23.90;45.00;;;;;;1538973;76;1725;-59
2021/12/04 11:23:06;;;;;;;;;;;23.90;45.20;;;;;;1525665;76;1682;-60
2021/12/04 11:38:55;;;;;;;;;;;23.90;45.10;;;;;;1443019;80;862;-60
2021/12/04 11:41:12;;;;;;;;;;;23.90;45.10;;;;;;1446815;80;2097;-59
2021/12/04 11:43:01;;;;;;;;;;;23.90;44.90;;;;;;1521998;77;1241;-59
2021/12/04 11:45:12;;;;;;;;;;;23.90;45.00;;;;;;1533812;77;989;-59
2021/12/04 11:47:08;;;;;;;;;;;24.00;44.90;;;;;;1533763;77;1641;-60
2021/12/04 11:49:12;;;;;;;;;;;24.00;44.90;;;;;;1527274;78;780;-60
2021/12/04 11:51:17;;;;;;;;;;;24.00;44.80;;;;;;1529999;78;1037;-60
2021/12/04 11:53:20;;;;;;;;;;;24.00;44.80;;;;;;1530423;78;767;-60
2021/12/04 11:55:22;;;;;;;;;;;24.00;44.70;;;;;;1529760;78;1902;-59
2021/12/04 11:57:29;;;;;;;;;;;24.00;44.70;;;;;;1530460;77;1117;-59
2021/12/04 11:59:32;;;;;;;;;;;23.90;44.90;;;;;;1508951;78;1917;-59
2021/12/04 12:01:34;;;;;;;;;;;24.00;44.80;;;;;;1506261;78;721;-59
2021/12/04 12:03:36;;;;;;;;;;;24.00;44.90;;;;;;1528419;78;732;-59
2021/12/04 12:05:43;;;;;;;;;;;23.90;45.00;;;;;;1530535;78;777;-58
2021/12/04 12:07:57;;;;;;;;;;;24.00;44.90;;;;;;1527880;76;1271;-58
2021/12/04 12:10:10;;;;;;;;;;;24.00;45.00;;;;;;1542065;76;794;-59
2021/12/04 12:12:13;;;;;;;;;;;23.90;45.10;;;;;;1532728;76;770;-59
2021/12/04 12:14:16;;;;;;;;;;;23.90;45.10;;;;;;1531101;76;735;-59
2021/12/04 12:16:19;;;;;;;;;;;23.90;45.10;;;;;;1528002;76;1932;-59
2021/12/04 12:18:22;;;;;;;;;;;23.90;45.10;;;;;;1529437;76;716;-59
2021/12/04 12:20:40;;;;;;;;;;;23.90;45.10;;;;;;1530178;76;718;-59
2021/12/04 12:22:39;;;;;;;;;;;23.90;45.10;;;;;;1524120;76;1570;-59
2021/12/04 12:36:17;;;;;;;;;;;23.80;45.10;;;;;;1525899;76;1949;-59
2021/12/04 12:38:35;;;;;;;;;;;23.90;45.20;;;;;;1539977;76;1624;-59
2021/12/04 12:40:37;;;;;;;;;;;23.90;45.20;;;;;;1531754;76;1134;-59
2021/12/04 12:42:40;;;;;;;;;;;23.80;45.10;;;;;;1523766;76;880;-59
2021/12/04 12:44:41;;;;;;;;;;;23.80;45.00;;;;;;1523674;77;646;-59
2021/12/04 12:46:56;;;;;;;;;;;23.90;45.10;;;;;;1536233;76;1160;-59
2021/12/04 12:48:58;;;;;;;;;;;23.90;45.10;;;;;;1556524;76;701;-61
2021/12/04 12:51:07;;;;;;;;;;;23.90;45.00;;;;;;1556272;76;738;-58
2021/12/04 12:53:10;;;;;;;;;;;23.90;45.10;;;;;;1540104;76;544;-58
2021/12/04 12:55:12;;;;;;;;;;;23.90;45.00;;;;;;1506287;78;1921;-59
2021/12/04 12:57:21;;;;;;;;;;;23.80;45.00;;;;;;1505125;79;1141;-60
2021/12/04 12:59:34;;;;;;;;;;;23.90;45.00;;;;;;1505075;79;1622;-59
2021/12/04 13:13:25;;;;;;;;;;;23.80;45.00;;;;;;1517448;77;1686;-61
2021/12/04 13:15:31;;;;;;;;;;;23.80;45.10;;;;;;1475940;78;1915;-61
2021/12/04 13:17:33;;;;;;;;;;;23.80;45.00;;;;;;1518009;78;1108;-59
2021/12/04 13:19:37;;;;;;;;;;;23.70;45.10;;;;;;1505870;78;669;-58
2021/12/04 13:21:39;;;;;;;;;;;23.80;45.00;;;;;;1505223;79;695;-59
2021/12/04 13:23:41;;;;;;;;;;;23.80;45.10;;;;;;1505019;79;798;-58
2021/12/04 13:25:56;;;;;;;;;;;23.80;45.00;;;;;;1476908;79;1247;-57
2021/12/04 13:30:04;;;;;;;;;;;23.70;45.00;;;;;;1505203;79;749;-59
2021/12/04 13:32:05;;;;;;;;;;;23.80;45.00;;;;;;1505056;78;1969;-59
2021/12/04 13:34:08;;;;;;;;;;;23.80;45.00;;;;;;1506186;78;707;-59
2021/12/04 13:36:14;;;;;;;;;;;23.80;45.00;;;;;;1505128;79;1925;-59
2021/12/04 13:38:16;;;;;;;;;;;23.90;45.10;;;;;;1510819;77;1688;-59
2021/12/04 13:40:19;;;;;;;;;;;23.90;45.10;;;;;;1532185;77;707;-59
2021/12/04 13:42:21;;;;;;;;;;;23.80;44.90;;;;;;1539714;77;720;-58
2021/12/04 13:44:23;;;;;;;;;;;23.70;45.00;;;;;;1539705;76;716;-58
2021/12/04 13:46:25;;;;;;;;;;;23.90;45.00;;;;;;1531310;76;1143;-58
2021/12/04 13:48:27;;;;;;;;;;;23.80;44.90;;;;;;1529357;76;766;-59
2021/12/04 13:52:34;;;;;;;;;;;23.80;44.80;;;;;;1517922;77;742;-68
2021/12/04 13:54:38;;;;;;;;;;;23.80;44.80;;;;;;1520570;78;747;-58
2021/12/04 13:56:40;;;;;;;;;;;23.80;44.70;;;;;;1527010;76;1940;-58
2021/12/04 13:58:49;;;;;;;;;;;23.80;44.80;;;;;;1525832;76;685;-59
2021/12/04 14:00:51;;;;;;;;;;;23.80;44.80;;;;;;1517918;77;804;-59
2021/12/04 14:02:53;;;;;;;;;;;23.80;44.80;;;;;;1515266;78;700;-58
2021/12/04 14:04:56;;;;;;;;;;;23.70;44.80;;;;;;1505096;79;785;-58
2021/12/04 14:07:02;;;;;;;;;;;23.70;44.80;;;;;;1533356;76;1183;-58
2021/12/04 14:09:07;;;;;;;;;;;23.80;44.80;;;;;;1520292;77;709;-59
2021/12/04 14:11:09;;;;;;;;;;;23.80;44.80;;;;;;1520400;76;748;-59
2021/12/04 14:13:12;;;;;;;;;;;23.90;44.70;;;;;;1513121;77;709;-58
2021/12/04 14:15:14;;;;;;;;;;;23.90;44.70;;;;;;1522017;76;1936;-59
2021/12/04 14:17:16;;;;;;;;;;;23.90;44.70;;;;;;1530840;76;1171;-59
2021/12/04 14:19:19;;;;;;;;;;;24.00;44.60;;;;;;1527562;76;732;-59
2021/12/04 14:21:21;;;;;;;;;;;23.90;44.60;;;;;;1518408;77;727;-58
2021/12/04 14:23:24;;;;;;;;;;;23.90;44.70;;;;;;1541791;77;702;-59
2021/12/04 14:25:26;;;;;;;;;;;23.90;44.70;;;;;;1509908;77;682;-58
2021/12/04 14:27:29;;;;;;;;;;;23.90;44.70;;;;;;1530011;77;1139;-59
2021/12/04 14:29:32;;;;;;;;;;;23.90;44.70;;;;;;1529309;77;704;-59
2021/12/04 14:31:34;;;;;;;;;;;24.00;44.70;;;;;;1528929;77;716;-59
2021/12/04 14:33:36;;;;;;;;;;;24.00;44.70;;;;;;1530356;78;763;-59
2021/12/04 14:35:39;;;;;;;;;;;24.00;44.60;;;;;;1519950;77;1932;-58
2021/12/04 14:37:42;;;;;;;;;;;24.10;44.70;;;;;;1530247;77;1077;-59
2021/12/04 14:39:45;;;;;;;;;;;24.10;44.80;;;;;;1530151;77;809;-59
2021/12/04 14:41:47;;;;;;;;;;;24.00;44.70;;;;;;1530287;78;803;-59
2021/12/04 14:43:49;;;;;;;;;;;24.00;44.80;;;;;;1529626;78;717;-59
2021/12/04 14:45:52;;;;;;;;;;;24.00;44.90;;;;;;1530400;78;1096;-59
2021/12/04 14:47:58;;;;;;;;;;;24.00;44.90;;;;;;1522473;76;779;-59
2021/12/04 14:50:00;;;;;;;;;;;24.00;45.00;;;;;;1527464;77;1723;-57
2021/12/04 14:52:02;;;;;;;;;;;23.90;45.00;;;;;;1522403;77;738;-58
2021/12/04 14:54:04;;;;;;;;;;;23.90;45.10;;;;;;1530502;78;767;-58
2021/12/04 14:56:06;;;;;;;;;;;23.90;45.10;;;;;;1534796;77;1931;-58
2021/12/04 14:58:11;;;;;;;;;;;23.90;45.10;;;;;;1523845;76;716;-58
2021/12/04 15:00:17;;;;;;;;;;;23.80;45.10;;;;;;1523353;76;892;-58
2021/12/04 15:02:20;;;;;;;;;;;23.90;45.20;;;;;;1517470;76;670;-58
2021/12/04 15:04:22;;;;;;;;;;;23.80;45.20;;;;;;1523666;76;624;-59
2021/12/04 15:06:24;;;;;;;;;;;23.80;45.20;;;;;;1524422;76;1193;-59
2021/12/04 15:08:28;;;;;;;;;;;23.80;45.20;;;;;;1529324;77;805;-59
2021/12/04 15:10:30;;;;;;;;;;;23.80;45.20;;;;;;1506949;78;697;-58